createdAt,value
2019-03-28T00:01:21.862Z,8.87
2019-03-28T00:03:52.608Z,8.87
2019-03-28T00:06:23.544Z,8.81
2019-03-28T00:08:54.271Z,8.79
2019-03-28T00:11:25.057Z,8.87
2019-03-28T00:13:55.752Z,8.87
2019-03-28T00:16:29.103Z,8.93
2019-03-28T00:18:59.845Z,8.94
2019-03-28T00:21:30.535Z,8.93
2019-03-28T00:24:17.982Z,8.93
2019-03-28T00:26:50.392Z,8.90
2019-03-28T00:29:21.061Z,8.93
2019-03-28T00:31:51.830Z,9.00
2019-03-28T00:34:31.394Z,8.90
2019-03-28T00:37:08.975Z,8.85
2019-03-28T00:39:49.303Z,8.84
2019-03-28T00:42:21.054Z,8.89
2019-03-28T00:45:03.156Z,8.80
2019-03-28T00:47:38.657Z,8.85
2019-03-28T00:50:15.723Z,8.86
2019-03-28T00:53:10.305Z,8.80
2019-03-28T00:55:49.637Z,8.82
2019-03-28T00:58:23.487Z,8.77
2019-03-28T01:00:54.435Z,8.71
2019-03-28T01:03:25.280Z,8.66
2019-03-28T01:05:55.972Z,8.65
2019-03-28T01:08:26.835Z,8.74
2019-03-28T01:10:58.656Z,8.70
2019-03-28T01:13:29.375Z,8.74
2019-03-28T01:16:00.139Z,8.81
2019-03-28T01:18:30.891Z,8.76
2019-03-28T01:21:01.604Z,8.81
2019-03-28T01:23:32.300Z,8.74
2019-03-28T01:26:03.058Z,8.78
2019-03-28T01:28:35.011Z,8.80
2019-03-28T01:31:05.710Z,8.78
2019-03-28T01:33:36.494Z,8.73
2019-03-28T01:36:07.195Z,8.68
2019-03-28T01:38:37.903Z,8.57
2019-03-28T01:41:08.668Z,8.61
2019-03-28T01:43:40.452Z,8.61
2019-03-28T01:46:11.247Z,8.52
2019-03-28T01:48:41.947Z,8.56
2019-03-28T01:51:12.689Z,8.55
2019-03-28T01:53:43.494Z,8.49
2019-03-28T01:56:14.221Z,8.55
2019-03-28T01:58:44.911Z,8.56
2019-03-28T02:01:15.625Z,8.50
2019-03-28T02:03:46.459Z,8.47
2019-03-28T02:06:18.071Z,8.49
2019-03-28T02:08:50.001Z,8.44
2019-03-28T02:11:21.725Z,8.40
2019-03-28T02:13:52.561Z,8.40
2019-03-28T02:16:23.299Z,8.42
2019-03-28T02:18:54.190Z,8.46
2019-03-28T02:21:24.919Z,8.45
2019-03-28T02:23:55.661Z,8.51
2019-03-28T02:26:26.491Z,8.51
2019-03-28T02:28:57.274Z,8.46
2019-03-28T02:31:28.079Z,8.41
2019-03-28T02:33:58.928Z,8.33
2019-03-28T02:36:29.736Z,8.34
2019-03-28T02:39:00.507Z,8.37
2019-03-28T02:41:32.940Z,8.32
2019-03-28T02:44:03.668Z,8.32
2019-03-28T02:46:34.818Z,8.36
2019-03-28T02:49:05.529Z,8.33
2019-03-28T02:51:36.299Z,8.39
2019-03-28T02:54:07.182Z,8.36
2019-03-28T02:56:37.948Z,8.34
2019-03-28T02:59:08.780Z,8.37
2019-03-28T03:01:40.815Z,8.36
2019-03-28T03:04:11.730Z,8.34
2019-03-28T03:06:42.549Z,8.28
2019-03-28T03:09:13.321Z,8.24
2019-03-28T03:11:44.087Z,8.23
2019-03-28T03:14:15.803Z,8.28
2019-03-28T03:16:46.522Z,8.24
2019-03-28T03:19:17.479Z,8.19
2019-03-28T03:21:48.555Z,8.13
2019-03-28T03:24:19.339Z,8.16
2019-03-28T03:26:50.099Z,8.15
2019-03-28T03:29:20.824Z,8.18
2019-03-28T03:31:53.558Z,8.14
2019-03-28T03:34:23.960Z,8.17
2019-03-28T03:36:54.765Z,8.19
2019-03-28T03:39:25.636Z,8.21
2019-03-28T03:41:56.469Z,8.25
2019-03-28T03:44:27.333Z,8.25
2019-03-28T03:46:58.143Z,8.26
2019-03-28T03:49:30.762Z,8.21
2019-03-28T03:52:01.766Z,8.20
2019-03-28T03:54:32.692Z,8.22
2019-03-28T03:57:03.474Z,8.20
2019-03-28T03:59:34.313Z,8.18
2019-03-28T04:02:05.108Z,8.21
2019-03-28T04:04:35.869Z,8.14
2019-03-28T04:07:06.600Z,8.16
2019-03-28T04:09:38.374Z,8.27
2019-03-28T04:12:09.048Z,8.24
2019-03-28T04:14:41.400Z,8.27
2019-03-28T04:17:12.129Z,8.27
2019-03-28T04:19:42.980Z,8.24
2019-03-28T04:22:13.705Z,8.22
2019-03-28T04:24:44.458Z,8.18
2019-03-28T04:27:15.204Z,8.18
2019-03-28T04:29:48.211Z,8.24
2019-03-28T04:32:25.373Z,8.20
2019-03-28T04:34:57.157Z,8.20
2019-03-28T04:37:27.891Z,8.13
2019-03-28T04:39:58.601Z,8.17
2019-03-28T04:42:29.358Z,8.20
2019-03-28T04:45:00.270Z,8.14
2019-03-28T04:47:31.233Z,8.18
2019-03-28T04:50:08.185Z,8.20
2019-03-28T04:52:39.217Z,8.22
2019-03-28T04:55:10.048Z,8.24
2019-03-28T04:57:41.290Z,8.20
2019-03-28T05:00:14.511Z,8.14
2019-03-28T05:02:48.329Z,8.06
2019-03-28T05:05:19.053Z,8.16
2019-03-28T05:07:49.797Z,8.06
2019-03-28T05:10:21.993Z,8.10
2019-03-28T05:12:56.396Z,8.17
2019-03-28T05:15:27.179Z,8.07
2019-03-28T05:18:01.084Z,8.15
2019-03-28T05:20:34.047Z,8.11
2019-03-28T05:23:08.461Z,8.12
2019-03-28T05:25:39.195Z,8.14
2019-03-28T05:28:12.227Z,8.13
2019-03-28T05:30:45.231Z,8.11
2019-03-28T05:33:18.008Z,8.21
2019-03-28T05:35:50.445Z,8.21
2019-03-28T05:38:21.284Z,8.18
2019-03-28T05:40:52.073Z,8.22
2019-03-28T05:43:22.786Z,8.20
2019-03-28T05:45:53.542Z,8.28
2019-03-28T05:48:26.243Z,8.36
2019-03-28T05:50:59.183Z,8.37
2019-03-28T05:53:29.965Z,8.32
2019-03-28T05:56:01.715Z,8.37
2019-03-28T05:58:32.492Z,8.47
2019-03-28T06:01:03.318Z,8.56
2019-03-28T06:03:34.167Z,8.49
2019-03-28T06:06:05.775Z,8.57
2019-03-28T06:08:37.743Z,8.61
2019-03-28T06:11:08.480Z,8.71
2019-03-28T06:13:39.384Z,8.64
2019-03-28T06:16:10.134Z,8.60
2019-03-28T06:18:40.930Z,8.73
2019-03-28T06:21:11.694Z,8.80
2019-03-28T06:23:42.511Z,8.97
2019-03-28T06:26:13.306Z,9.08
2019-03-28T06:28:44.105Z,8.98
2019-03-28T06:31:14.823Z,9.04
2019-03-28T06:33:45.689Z,8.95
2019-03-28T06:36:16.433Z,9.09
2019-03-28T06:38:47.159Z,9.10
2019-03-28T06:41:17.910Z,9.16
2019-03-28T06:43:49.735Z,9.26
2019-03-28T06:46:20.459Z,9.31
2019-03-28T06:48:51.287Z,9.34
2019-03-28T06:51:22.106Z,9.27
2019-03-28T06:53:52.865Z,9.33
2019-03-28T06:56:25.448Z,9.18
2019-03-28T06:58:56.169Z,9.20
2019-03-28T07:01:26.924Z,9.32
2019-03-28T07:03:57.683Z,9.41
2019-03-28T07:06:28.413Z,9.46
2019-03-28T07:08:59.198Z,9.55
2019-03-28T07:11:30.014Z,9.63
2019-03-28T07:14:00.787Z,9.65
2019-03-28T07:16:31.552Z,9.63
2019-03-28T07:19:02.320Z,9.61
2019-03-28T07:21:33.049Z,9.39
2019-03-28T07:24:04.259Z,9.36
2019-03-28T07:26:34.967Z,9.27
2019-03-28T07:29:05.762Z,9.15
2019-03-28T07:31:36.520Z,9.26
2019-03-28T07:34:10.124Z,9.15
2019-03-28T07:36:40.905Z,9.25
2019-03-28T07:39:11.656Z,9.22
2019-03-28T07:41:42.451Z,9.26
2019-03-28T07:44:13.193Z,9.35
2019-03-28T07:46:44.059Z,9.28
2019-03-28T07:49:14.857Z,9.25
2019-03-28T07:51:45.581Z,9.42
2019-03-28T07:54:16.466Z,9.61
2019-03-28T07:56:47.240Z,9.69
2019-03-28T07:59:18.273Z,9.71
2019-03-28T08:01:49.054Z,9.72
2019-03-28T08:04:21.084Z,9.78
2019-03-28T08:06:51.939Z,9.76
2019-03-28T08:09:35.739Z,9.81
2019-03-28T08:11:55.157Z,9.91
2019-03-28T08:14:25.883Z,9.79
2019-03-28T08:16:56.648Z,9.72
2019-03-28T08:19:27.332Z,9.56
2019-03-28T08:21:58.151Z,9.58
2019-03-28T08:24:28.865Z,9.65
2019-03-28T08:26:59.602Z,9.62
2019-03-28T08:29:30.466Z,9.65
2019-03-28T08:32:01.715Z,9.79
2019-03-28T08:34:32.476Z,9.78
2019-03-28T08:37:03.687Z,9.96
2019-03-28T08:39:34.652Z,9.93
2019-03-28T08:42:05.454Z,9.99
2019-03-28T08:44:36.242Z,9.93
2019-03-28T08:47:07.135Z,10.05
2019-03-28T08:49:38.202Z,10.18
2019-03-28T08:52:11.616Z,10.18
2019-03-28T08:54:41.874Z,10.29
2019-03-28T08:57:13.752Z,10.26
2019-03-28T08:59:44.808Z,10.43
2019-03-28T09:02:15.572Z,10.44
2019-03-28T09:04:47.328Z,10.55
2019-03-28T09:07:18.128Z,10.56
2019-03-28T09:09:49.108Z,10.74
2019-03-28T09:12:19.897Z,10.59
2019-03-28T09:14:50.671Z,10.68
2019-03-28T09:17:23.849Z,10.70
2019-03-28T09:19:53.836Z,10.56
2019-03-28T09:22:25.877Z,10.76
2019-03-28T09:24:57.922Z,10.78
2019-03-28T09:27:28.708Z,10.91
2019-03-28T09:29:59.537Z,10.92
2019-03-28T09:32:30.637Z,10.83
2019-03-28T09:35:01.429Z,10.94
2019-03-28T09:37:32.169Z,10.90
2019-03-28T09:40:02.935Z,10.79
2019-03-28T09:42:33.705Z,10.91
2019-03-28T09:45:04.947Z,11.14
2019-03-28T09:47:35.781Z,11.11
2019-03-28T09:50:07.080Z,11.16
2019-03-28T09:52:37.808Z,11.37
2019-03-28T09:55:08.566Z,11.68
2019-03-28T09:57:39.307Z,11.48
2019-03-28T10:00:11.480Z,11.71
2019-03-28T10:02:44.086Z,11.79
2019-03-28T10:05:15.819Z,11.83
2019-03-28T10:07:46.605Z,12.00
2019-03-28T10:10:17.346Z,11.96
2019-03-28T10:12:48.139Z,11.80
2019-03-28T10:15:18.966Z,11.76
2019-03-28T10:17:49.749Z,11.79
2019-03-28T10:20:20.433Z,11.78
2019-03-28T10:22:51.238Z,11.75
2019-03-28T10:25:21.989Z,12.42
2019-03-28T10:27:52.733Z,12.64
2019-03-28T10:30:45.784Z,12.18
2019-03-28T10:33:16.492Z,12.39
2019-03-28T10:35:47.237Z,12.66
2019-03-28T10:38:17.951Z,13.05
2019-03-28T10:40:48.699Z,13.23
2019-03-28T10:43:19.454Z,12.89
2019-03-28T10:45:50.199Z,12.72
2019-03-28T10:48:23.444Z,12.74
2019-03-28T10:50:53.394Z,12.75
2019-03-28T10:53:24.132Z,12.51
2019-03-28T10:55:54.997Z,12.42
2019-03-28T10:58:25.747Z,12.49
2019-03-28T11:00:56.723Z,12.48
2019-03-28T11:03:27.475Z,12.77
2019-03-28T11:05:58.231Z,12.90
2019-03-28T11:08:29.045Z,12.98
2019-03-28T11:10:59.941Z,12.67
2019-03-28T11:13:30.779Z,12.73
2019-03-28T11:16:01.668Z,12.57
2019-03-28T11:18:32.576Z,12.50
2019-03-28T11:21:03.338Z,12.68
2019-03-28T11:23:34.299Z,12.91
2019-03-28T11:26:05.441Z,12.99
2019-03-28T11:28:36.197Z,13.14
2019-03-28T11:31:07.959Z,12.77
2019-03-28T11:33:38.945Z,12.64
2019-03-28T11:36:09.639Z,12.61
2019-03-28T11:38:40.433Z,12.65
2019-03-28T11:41:11.169Z,12.42
2019-03-28T11:43:42.081Z,12.48
2019-03-28T11:46:13.725Z,12.59
2019-03-28T11:48:44.542Z,12.76
2019-03-28T11:51:15.335Z,12.80
2019-03-28T11:53:46.240Z,12.85
2019-03-28T11:56:17.043Z,12.88
2019-03-28T11:58:47.840Z,13.16
2019-03-28T12:01:18.566Z,13.28
2019-03-28T12:03:49.335Z,12.96
2019-03-28T12:06:20.059Z,12.74
2019-03-28T12:08:50.785Z,12.62
2019-03-28T12:11:21.446Z,12.72
2019-03-28T12:13:52.185Z,12.73
2019-03-28T12:16:22.936Z,12.82
2019-03-28T12:18:53.728Z,12.95
2019-03-28T12:21:26.836Z,13.17
2019-03-28T12:23:57.646Z,13.30
2019-03-28T12:26:29.596Z,13.48
2019-03-28T12:29:00.709Z,13.44
2019-03-28T12:31:33.179Z,13.48
2019-03-28T12:34:04.066Z,13.13
2019-03-28T12:36:34.787Z,12.79
2019-03-28T12:39:07.291Z,12.67
2019-03-28T12:41:37.980Z,12.65
2019-03-28T12:44:08.884Z,12.71
2019-03-28T12:46:39.542Z,12.78
2019-03-28T12:49:10.475Z,12.90
2019-03-28T12:51:41.134Z,13.14
2019-03-28T12:54:11.918Z,13.49
2019-03-28T12:56:42.643Z,13.81
2019-03-28T12:59:14.067Z,13.98
2019-03-28T13:01:45.281Z,13.59
2019-03-28T13:04:16.116Z,13.82
2019-03-28T13:06:46.913Z,13.99
2019-03-28T13:09:17.784Z,13.82
2019-03-28T13:11:48.562Z,13.71
2019-03-28T13:14:19.366Z,13.59
2019-03-28T13:16:51.772Z,13.57
2019-03-28T13:19:27.447Z,13.42
2019-03-28T13:21:58.357Z,13.63
2019-03-28T13:24:29.110Z,13.52
2019-03-28T13:26:59.840Z,13.62
2019-03-28T13:29:30.615Z,13.68
2019-03-28T13:32:01.247Z,13.68
2019-03-28T13:34:31.981Z,13.70
2019-03-28T13:37:02.666Z,13.49
2019-03-28T13:39:33.390Z,13.69
2019-03-28T13:42:04.057Z,13.83
2019-03-28T13:44:34.754Z,13.80
2019-03-28T13:47:05.427Z,13.62
2019-03-28T13:49:36.156Z,13.59
2019-03-28T13:52:06.846Z,13.48
2019-03-28T13:54:37.660Z,13.44
2019-03-28T13:57:08.361Z,13.40
2019-03-28T13:59:39.099Z,13.29
2019-03-28T14:02:09.852Z,12.90
2019-03-28T14:04:40.624Z,12.93
2019-03-28T14:07:13.269Z,12.93
2019-03-28T14:09:44.024Z,12.79
2019-03-28T14:12:14.805Z,12.77
2019-03-28T14:14:45.534Z,12.80
2019-03-28T14:17:16.321Z,12.92
2019-03-28T14:19:47.031Z,12.92
2019-03-28T14:22:18.253Z,12.93
2019-03-28T14:24:49.066Z,12.96
2019-03-28T14:27:19.799Z,12.98
2019-03-28T14:29:50.510Z,12.91
2019-03-28T14:32:21.162Z,12.86
2019-03-28T14:34:51.865Z,12.88
2019-03-28T14:37:22.506Z,12.92
2019-03-28T14:39:53.305Z,12.98
2019-03-28T14:42:23.990Z,12.92
2019-03-28T14:44:54.683Z,12.87
2019-03-28T14:47:25.469Z,12.93
2019-03-28T14:49:56.483Z,13.03
2019-03-28T14:52:28.659Z,13.13
2019-03-28T14:55:01.628Z,13.15
2019-03-28T14:57:32.995Z,13.15
2019-03-28T15:00:05.570Z,13.40
2019-03-28T15:02:36.396Z,13.56
2019-03-28T15:05:07.379Z,13.66
2019-03-28T15:07:38.109Z,13.53
2019-03-28T15:10:09.074Z,13.55
2019-03-28T15:12:39.745Z,13.52
2019-03-28T15:15:10.907Z,13.55
2019-03-28T15:17:44.797Z,13.68
2019-03-28T15:20:13.950Z,13.46
2019-03-28T15:22:44.627Z,13.45
2019-03-28T15:25:15.314Z,13.56
2019-03-28T15:27:46.048Z,13.60
2019-03-28T15:30:18.114Z,13.59
2019-03-28T15:32:48.860Z,13.42
2019-03-28T15:35:19.501Z,13.31
2019-03-28T15:37:50.168Z,13.22
2019-03-28T15:40:21.018Z,13.08
2019-03-28T15:42:51.874Z,12.93
2019-03-28T15:45:22.545Z,12.86
2019-03-28T15:47:53.291Z,12.78
2019-03-28T15:50:24.474Z,12.61
2019-03-28T15:52:57.583Z,12.51
2019-03-28T15:55:30.787Z,12.52
2019-03-28T15:58:07.256Z,12.59
2019-03-28T16:00:38.174Z,12.71
2019-03-28T16:03:08.955Z,12.70
2019-03-28T16:05:40.598Z,12.76
2019-03-28T16:08:11.336Z,12.72
2019-03-28T16:10:44.093Z,12.79
2019-03-28T16:13:14.770Z,12.75
2019-03-28T16:15:46.852Z,12.70
2019-03-28T16:18:21.939Z,12.64
2019-03-28T16:20:56.703Z,12.67
2019-03-28T16:23:29.571Z,12.65
2019-03-28T16:26:02.479Z,12.66
2019-03-28T16:28:33.240Z,12.62
2019-03-28T16:31:04.191Z,12.65
2019-03-28T16:33:37.858Z,12.63
2019-03-28T16:36:09.228Z,12.61
2019-03-28T16:38:39.945Z,12.57
2019-03-28T16:41:10.749Z,12.52
2019-03-28T16:43:42.147Z,12.46
2019-03-28T16:46:12.874Z,12.55
2019-03-28T16:48:43.700Z,12.40
2019-03-28T16:51:17.388Z,12.38
2019-03-28T16:53:46.995Z,12.33
2019-03-28T16:56:19.188Z,12.33
2019-03-28T16:58:50.209Z,12.34
2019-03-28T17:01:20.937Z,12.23
2019-03-28T17:03:52.382Z,12.37
2019-03-28T17:06:26.330Z,12.32
2019-03-28T17:09:02.859Z,12.28
2019-03-28T17:11:34.760Z,12.22
2019-03-28T17:14:05.784Z,12.21
2019-03-28T17:16:36.471Z,12.21
2019-03-28T17:19:07.310Z,12.18
2019-03-28T17:21:38.004Z,12.15
2019-03-28T17:24:08.707Z,12.11
2019-03-28T17:26:39.405Z,12.13
2019-03-28T17:29:10.256Z,12.09
2019-03-28T17:31:40.942Z,12.02
2019-03-28T17:34:13.891Z,11.99
2019-03-28T17:36:46.381Z,11.92
2019-03-28T17:39:19.003Z,11.82
2019-03-28T17:41:49.671Z,11.76
2019-03-28T17:44:20.497Z,11.68
2019-03-28T17:46:51.207Z,11.64
2019-03-28T17:49:22.057Z,11.60
2019-03-28T17:51:56.965Z,11.47
2019-03-28T17:54:30.226Z,11.44
2019-03-28T17:57:02.687Z,11.44
2019-03-28T17:59:34.450Z,11.44
2019-03-28T18:02:05.181Z,11.46
2019-03-28T18:04:47.454Z,11.46
2019-03-28T18:07:08.421Z,11.46
2019-03-28T18:09:39.132Z,11.49
2019-03-28T18:12:09.792Z,11.45
2019-03-28T18:14:40.523Z,11.50
2019-03-28T18:17:11.809Z,11.46
2019-03-28T18:19:42.681Z,11.44
2019-03-28T18:22:13.470Z,11.52
2019-03-28T18:24:44.115Z,11.54
2019-03-28T18:27:15.116Z,11.66
2019-03-28T18:29:45.919Z,11.59
2019-03-28T18:32:19.108Z,11.61
2019-03-28T18:35:04.634Z,11.64
2019-03-28T18:37:23.347Z,11.60
2019-03-28T18:39:57.548Z,11.59
2019-03-28T18:42:28.320Z,11.57
2019-03-28T18:45:00.573Z,11.61
2019-03-28T18:47:32.393Z,11.56
2019-03-28T18:50:03.987Z,11.58
2019-03-28T18:52:35.049Z,11.56
2019-03-28T18:55:06.179Z,11.57
2019-03-28T18:57:39.693Z,11.58
2019-03-28T19:00:10.892Z,11.49
2019-03-28T19:02:41.859Z,11.50
2019-03-28T19:05:19.564Z,11.56
2019-03-28T19:07:45.035Z,11.59
2019-03-28T19:10:16.089Z,11.59
2019-03-28T19:12:48.233Z,11.62
2019-03-28T19:15:20.648Z,11.55
2019-03-28T19:17:51.360Z,11.52
2019-03-28T19:20:23.199Z,11.46
2019-03-28T19:22:53.930Z,11.44
2019-03-28T19:25:24.676Z,11.42
2019-03-28T19:27:55.712Z,11.37
2019-03-28T19:30:34.280Z,11.46
2019-03-28T19:33:07.060Z,11.46
2019-03-28T19:35:39.604Z,11.46
2019-03-28T19:38:11.976Z,11.44
2019-03-28T19:40:46.837Z,11.33
2019-03-28T19:43:20.792Z,11.19
2019-03-28T19:45:51.606Z,11.13
2019-03-28T19:48:22.320Z,11.14
2019-03-28T19:50:53.025Z,11.13
2019-03-28T19:53:27.012Z,11.11
2019-03-28T19:55:58.006Z,11.13
2019-03-28T19:58:35.105Z,11.14
2019-03-28T20:01:05.698Z,11.18
2019-03-28T20:03:36.399Z,11.15
2019-03-28T20:06:21.317Z,11.14
2019-03-28T20:08:40.822Z,11.05
2019-03-28T20:11:11.601Z,11.00
2019-03-28T20:13:42.388Z,11.00
2019-03-28T20:16:16.398Z,10.97
2019-03-28T20:18:46.827Z,10.94
2019-03-28T20:21:17.560Z,10.95
2019-03-28T20:23:51.078Z,10.94
2019-03-28T20:26:24.988Z,10.98
2019-03-28T20:29:05.580Z,11.01
2019-03-28T20:31:37.494Z,11.05
2019-03-28T20:34:08.690Z,11.03
2019-03-28T20:36:44.373Z,10.97
2019-03-28T20:39:16.907Z,10.96
2019-03-28T20:41:47.555Z,10.95
2019-03-28T20:44:20.496Z,10.97
2019-03-28T20:46:58.667Z,10.99
2019-03-28T20:49:30.915Z,10.98
2019-03-28T20:52:01.716Z,10.94
2019-03-28T20:54:32.428Z,10.99
2019-03-28T20:57:03.084Z,10.95
2019-03-28T20:59:36.095Z,10.93
2019-03-28T21:02:07.982Z,10.88
2019-03-28T21:04:39.501Z,10.86
2019-03-28T21:07:10.268Z,10.87
2019-03-28T21:09:42.593Z,10.86
2019-03-28T21:12:13.243Z,10.81
2019-03-28T21:14:45.190Z,10.85
2019-03-28T21:17:15.841Z,10.87
2019-03-28T21:19:47.121Z,10.97
2019-03-28T21:22:17.914Z,11.04
2019-03-28T21:24:48.632Z,11.08
2019-03-28T21:27:20.817Z,11.12
2019-03-28T21:29:51.690Z,11.15
2019-03-28T21:32:22.467Z,11.09
2019-03-28T21:34:56.324Z,11.16
2019-03-28T21:37:25.812Z,11.05
2019-03-28T21:39:56.653Z,11.00
2019-03-28T21:42:32.206Z,11.05
2019-03-28T21:45:02.956Z,11.09
2019-03-28T21:47:35.313Z,11.01
2019-03-28T21:50:06.325Z,11.06
2019-03-28T21:52:38.190Z,11.04
2019-03-28T21:55:11.503Z,11.07
2019-03-28T21:57:43.967Z,11.09
2019-03-28T22:00:15.014Z,11.13
2019-03-28T22:02:45.667Z,11.15
2019-03-28T22:05:17.342Z,11.16
2019-03-28T22:07:48.130Z,11.16
2019-03-28T22:10:18.864Z,11.14
2019-03-28T22:12:49.601Z,11.14
2019-03-28T22:15:23.433Z,11.15
2019-03-28T22:17:54.093Z,11.07
2019-03-28T22:20:24.875Z,11.11
2019-03-28T22:22:55.943Z,11.12
2019-03-28T22:25:26.653Z,11.14
2019-03-28T22:27:57.496Z,11.16
2019-03-28T22:30:28.204Z,11.14
2019-03-28T22:32:59.073Z,11.07
2019-03-28T22:35:29.823Z,11.08
2019-03-28T22:38:00.533Z,11.08
2019-03-28T22:40:34.988Z,11.05
2019-03-28T22:43:07.020Z,10.99
2019-03-28T22:45:38.063Z,10.98
2019-03-28T22:48:10.928Z,10.95
2019-03-28T22:50:41.396Z,11.01
2019-03-28T22:53:12.242Z,10.97
2019-03-28T22:55:43.254Z,11.00
2019-03-28T22:58:13.996Z,11.04
2019-03-28T23:00:45.716Z,11.07
2019-03-28T23:03:18.549Z,11.07
2019-03-28T23:05:49.359Z,11.09
2019-03-28T23:08:20.329Z,11.10
2019-03-28T23:10:51.083Z,11.10
2019-03-28T23:13:22.859Z,11.09
2019-03-28T23:15:55.336Z,11.10
2019-03-28T23:18:26.945Z,11.07
2019-03-28T23:20:57.791Z,11.05
2019-03-28T23:23:30.229Z,11.06
2019-03-28T23:26:01.013Z,11.04
2019-03-28T23:28:31.840Z,11.05
2019-03-28T23:31:02.541Z,11.05
2019-03-28T23:33:36.045Z,11.04
2019-03-28T23:36:07.031Z,11.03
2019-03-28T23:38:40.253Z,11.03
2019-03-28T23:41:11.500Z,10.99
2019-03-28T23:43:42.173Z,11.00
2019-03-28T23:46:14.397Z,11.01
2019-03-28T23:48:45.564Z,11.01
2019-03-28T23:51:17.259Z,11.00
2019-03-28T23:53:50.770Z,10.93
2019-03-28T23:56:26.665Z,10.95
2019-03-28T23:58:57.687Z,10.98
